createdAt,value
2022-12-07T00:00:40.189Z,5.85
2022-12-07T00:01:39.504Z,5.89
2022-12-07T00:02:39.919Z,5.86
2022-12-07T00:03:38.769Z,5.89
2022-12-07T00:04:39.959Z,5.89
2022-12-07T00:05:58.848Z,5.89
2022-12-07T00:06:39.670Z,5.89
2022-12-07T00:07:38.636Z,5.89
2022-12-07T00:08:38.451Z,5.90
2022-12-07T00:09:40.102Z,5.90
2022-12-07T00:10:39.499Z,5.89
2022-12-07T00:11:39.803Z,5.90
2022-12-07T00:12:39.378Z,5.89
2022-12-07T00:13:40.013Z,5.89
2022-12-07T00:14:39.374Z,5.90
2022-12-07T00:15:58.668Z,5.89
2022-12-07T00:16:39.469Z,5.91
2022-12-07T00:17:39.741Z,5.91
2022-12-07T00:18:39.373Z,5.91
2022-12-07T00:19:39.876Z,5.91
2022-12-07T00:20:38.905Z,5.93
2022-12-07T00:21:39.528Z,5.91
2022-12-07T00:22:39.413Z,5.91
2022-12-07T00:23:38.885Z,5.89
2022-12-07T00:24:38.884Z,5.89
2022-12-07T00:25:58.405Z,5.86
2022-12-07T00:26:39.234Z,5.83
2022-12-07T00:27:38.598Z,5.85
2022-12-07T00:28:39.864Z,5.82
2022-12-07T00:29:38.885Z,5.82
2022-12-07T00:30:39.537Z,5.79
2022-12-07T00:31:40.207Z,5.79
2022-12-07T00:32:39.183Z,5.76
2022-12-07T00:33:39.166Z,5.75
2022-12-07T00:34:39.797Z,5.72
2022-12-07T00:35:58.671Z,5.71
2022-12-07T00:36:39.886Z,5.68
2022-12-07T00:37:39.267Z,5.67
2022-12-07T00:38:39.124Z,5.67
2022-12-07T00:39:39.450Z,5.67
2022-12-07T00:40:39.779Z,5.64
2022-12-07T00:41:38.899Z,5.61
2022-12-07T00:42:39.482Z,5.58
2022-12-07T00:43:39.799Z,5.57
2022-12-07T00:44:39.663Z,5.54
2022-12-07T00:45:58.116Z,5.54
2022-12-07T00:46:38.898Z,5.53
2022-12-07T00:47:38.780Z,5.53
2022-12-07T00:48:39.901Z,5.51
2022-12-07T00:49:39.697Z,5.49
2022-12-07T00:50:39.568Z,5.49
2022-12-07T00:51:38.928Z,5.49
2022-12-07T00:52:38.907Z,5.49
2022-12-07T00:53:41.725Z,5.48
2022-12-07T00:54:38.941Z,5.46
2022-12-07T00:55:58.279Z,5.46
2022-12-07T00:56:39.567Z,5.46
2022-12-07T00:57:38.599Z,5.45
2022-12-07T00:58:38.919Z,5.43
2022-12-07T00:59:39.572Z,5.42
2022-12-07T01:00:39.431Z,5.42
2022-12-07T01:01:39.365Z,5.40
2022-12-07T01:02:39.561Z,5.38
2022-12-07T01:03:39.008Z,5.38
2022-12-07T01:04:38.911Z,5.38
2022-12-07T01:05:58.103Z,5.38
2022-12-07T01:06:39.391Z,5.39
2022-12-07T01:07:38.935Z,5.38
2022-12-07T01:08:39.051Z,5.36
2022-12-07T01:09:38.437Z,5.38
2022-12-07T01:10:38.401Z,5.36
2022-12-07T01:11:39.645Z,5.39
2022-12-07T01:12:38.953Z,5.36
2022-12-07T01:13:38.804Z,5.35
2022-12-07T01:14:39.092Z,5.35
2022-12-07T01:15:57.972Z,5.38
2022-12-07T01:16:39.318Z,5.38
2022-12-07T01:17:39.580Z,5.39
2022-12-07T01:18:38.910Z,5.38
2022-12-07T01:19:38.743Z,5.36
2022-12-07T01:20:39.515Z,5.38
2022-12-07T01:21:38.570Z,5.38
2022-12-07T01:22:38.723Z,5.36
2022-12-07T01:23:38.994Z,5.38
2022-12-07T01:24:38.867Z,5.38
2022-12-07T01:25:57.727Z,5.36
2022-12-07T01:26:39.474Z,5.38
2022-12-07T01:27:38.423Z,5.36
2022-12-07T01:28:39.156Z,5.33
2022-12-07T01:29:39.454Z,5.33
2022-12-07T01:30:39.343Z,5.33
2022-12-07T01:31:37.696Z,5.30
2022-12-07T01:32:39.476Z,5.28
2022-12-07T01:33:38.427Z,5.30
2022-12-07T01:34:39.086Z,5.27
2022-12-07T01:35:57.959Z,5.28
2022-12-07T01:36:38.690Z,5.27
2022-12-07T01:37:39.047Z,5.24
2022-12-07T01:38:38.876Z,5.22
2022-12-07T01:39:38.452Z,5.21
2022-12-07T01:40:38.604Z,5.18
2022-12-07T01:41:38.417Z,5.18
2022-12-07T01:42:39.310Z,5.18
2022-12-07T01:43:37.707Z,5.18
2022-12-07T01:44:38.526Z,5.17
2022-12-07T01:45:57.860Z,5.20
2022-12-07T01:46:38.576Z,5.18
2022-12-07T01:47:37.509Z,5.18
2022-12-07T01:48:38.758Z,5.20
2022-12-07T01:49:39.079Z,5.18
2022-12-07T01:50:38.918Z,5.20
2022-12-07T01:51:38.450Z,5.18
2022-12-07T01:52:39.098Z,5.21
2022-12-07T01:53:37.511Z,5.20
2022-12-07T01:54:38.784Z,5.22
2022-12-07T01:55:57.570Z,5.25
2022-12-07T01:56:38.900Z,5.24
2022-12-07T01:57:39.210Z,5.24
2022-12-07T01:58:38.559Z,5.25
2022-12-07T01:59:38.842Z,5.27
2022-12-07T02:00:38.710Z,5.27
2022-12-07T02:01:37.980Z,5.25
2022-12-07T02:02:38.914Z,5.27
2022-12-07T02:03:39.120Z,5.27
2022-12-07T02:04:38.957Z,5.30
2022-12-07T02:05:57.292Z,5.28
2022-12-07T02:06:38.521Z,5.28
2022-12-07T02:07:37.510Z,5.28
2022-12-07T02:08:38.742Z,5.31
2022-12-07T02:09:38.615Z,5.33
2022-12-07T02:10:38.895Z,5.35
2022-12-07T02:11:38.776Z,5.35
2022-12-07T02:12:38.076Z,5.38
2022-12-07T02:13:37.962Z,5.38
2022-12-07T02:14:38.773Z,5.38
2022-12-07T02:16:03.479Z,5.39
2022-12-07T02:16:38.201Z,5.40
2022-12-07T02:17:38.194Z,5.38
2022-12-07T02:18:37.968Z,5.40
2022-12-07T02:19:38.178Z,5.39
2022-12-07T02:20:38.975Z,5.39
2022-12-07T02:21:38.758Z,5.40
2022-12-07T02:23:52.623Z,5.43
2022-12-07T02:24:53.354Z,5.40
2022-12-07T02:25:54.576Z,5.40
2022-12-07T02:26:53.422Z,5.40
2022-12-07T02:27:53.197Z,5.40
2022-12-07T02:28:52.983Z,5.40
2022-12-07T02:29:53.965Z,5.40
2022-12-07T02:30:53.120Z,5.39
2022-12-07T02:31:54.724Z,5.40
2022-12-07T02:33:14.503Z,5.40
2022-12-07T02:33:53.326Z,5.39
2022-12-07T02:34:54.525Z,5.39
2022-12-07T02:35:53.445Z,5.40
2022-12-07T02:36:53.165Z,5.40
2022-12-07T02:37:52.925Z,5.38
2022-12-07T02:38:53.186Z,5.40
2022-12-07T02:39:52.955Z,5.40
2022-12-07T02:40:53.476Z,5.42
2022-12-07T02:41:53.027Z,5.42
2022-12-07T02:43:13.308Z,5.42
2022-12-07T02:43:53.092Z,5.43
2022-12-07T02:44:52.867Z,5.42
2022-12-07T02:45:54.037Z,5.43
2022-12-07T02:46:53.068Z,5.45
2022-12-07T02:47:53.251Z,5.43
2022-12-07T02:48:53.059Z,5.45
2022-12-07T02:49:52.838Z,5.42
2022-12-07T02:50:54.008Z,5.42
2022-12-07T02:51:52.967Z,5.45
2022-12-07T02:53:13.250Z,5.45
2022-12-07T02:53:52.999Z,5.45
2022-12-07T02:54:52.827Z,5.43
2022-12-07T02:55:53.086Z,5.43
2022-12-07T02:56:52.879Z,5.43
2022-12-07T02:57:53.169Z,5.43
2022-12-07T02:58:53.490Z,5.42
2022-12-07T02:59:52.725Z,5.42
2022-12-07T03:00:53.070Z,5.43
2022-12-07T03:01:54.276Z,5.40
2022-12-07T03:03:13.148Z,5.42
2022-12-07T03:03:54.290Z,5.40
2022-12-07T03:04:53.490Z,5.40
2022-12-07T03:05:53.081Z,5.40
2022-12-07T03:06:52.701Z,5.40
2022-12-07T03:07:54.443Z,5.39
2022-12-07T03:08:52.792Z,5.40
2022-12-07T03:09:53.045Z,5.39
2022-12-07T03:10:53.112Z,5.39
2022-12-07T03:11:52.595Z,5.38
2022-12-07T03:13:12.891Z,5.36
2022-12-07T03:13:52.780Z,5.38
2022-12-07T03:14:52.972Z,5.35
2022-12-07T03:15:53.176Z,5.38
2022-12-07T03:16:52.630Z,5.35
2022-12-07T03:17:52.782Z,5.36
2022-12-07T03:18:52.582Z,5.35
2022-12-07T03:19:52.860Z,5.33
2022-12-07T03:20:52.675Z,5.31
2022-12-07T03:21:54.364Z,5.28
2022-12-07T03:23:12.731Z,5.28
2022-12-07T03:23:52.503Z,5.28
2022-12-07T03:24:52.803Z,5.30
2022-12-07T03:25:57.094Z,5.27
2022-12-07T03:26:53.865Z,5.27
2022-12-07T03:27:52.604Z,5.28
2022-12-07T03:28:52.424Z,5.27
2022-12-07T03:29:52.674Z,5.27
2022-12-07T03:30:52.506Z,5.28
2022-12-07T03:31:52.850Z,5.24
2022-12-07T03:33:12.586Z,5.25
2022-12-07T03:33:52.357Z,5.24
2022-12-07T03:34:54.064Z,5.24
2022-12-07T03:35:53.014Z,5.25
2022-12-07T03:36:52.648Z,5.25
2022-12-07T03:37:52.375Z,5.21
2022-12-07T03:38:53.605Z,5.21
2022-12-07T03:39:52.448Z,5.20
2022-12-07T03:40:52.764Z,5.18
2022-12-07T03:41:52.515Z,5.18
2022-12-07T03:43:12.304Z,5.18
2022-12-07T03:43:53.966Z,5.17
2022-12-07T03:44:52.357Z,5.15
2022-12-07T03:45:53.083Z,5.15
2022-12-07T03:46:52.507Z,5.15
2022-12-07T03:47:52.197Z,5.12
2022-12-07T03:48:52.476Z,5.09
2022-12-07T03:49:54.677Z,5.10
2022-12-07T03:50:52.538Z,5.10
2022-12-07T03:51:52.336Z,5.09
2022-12-07T03:53:12.632Z,5.06
2022-12-07T03:53:52.400Z,5.07
2022-12-07T03:54:52.197Z,5.06
2022-12-07T03:55:53.823Z,5.06
2022-12-07T03:56:52.267Z,5.04
2022-12-07T03:57:52.548Z,5.04
2022-12-07T03:58:52.341Z,5.07
2022-12-07T03:59:52.138Z,5.07
2022-12-07T04:00:53.752Z,5.09
2022-12-07T04:01:52.228Z,5.09
2022-12-07T04:03:12.591Z,5.12
2022-12-07T04:03:52.307Z,5.12
2022-12-07T04:04:52.087Z,5.09
2022-12-07T04:05:52.389Z,5.09
2022-12-07T04:06:52.170Z,5.07
2022-12-07T04:07:52.475Z,5.09
2022-12-07T04:08:53.181Z,5.10
2022-12-07T04:09:52.009Z,5.10
2022-12-07T04:10:52.410Z,5.10
2022-12-07T04:11:52.101Z,5.12
2022-12-07T04:13:12.374Z,5.10
2022-12-07T04:13:52.132Z,5.12
2022-12-07T04:14:51.981Z,5.10
2022-12-07T04:15:52.311Z,5.12
2022-12-07T04:16:52.098Z,5.12
2022-12-07T04:17:52.333Z,5.13
2022-12-07T04:18:52.128Z,5.12
2022-12-07T04:19:51.944Z,5.12
2022-12-07T04:20:52.254Z,5.10
2022-12-07T04:21:52.012Z,5.13
2022-12-07T04:23:12.297Z,5.15
2022-12-07T04:23:53.032Z,5.15
2022-12-07T04:24:52.378Z,5.17
2022-12-07T04:25:52.222Z,5.17
2022-12-07T04:26:51.952Z,5.18
2022-12-07T04:27:52.263Z,5.20
2022-12-07T04:28:52.014Z,5.18
2022-12-07T04:29:51.830Z,5.20
2022-12-07T04:30:52.533Z,5.18
2022-12-07T04:31:52.029Z,5.20
2022-12-07T04:33:12.206Z,5.17
2022-12-07T04:33:51.974Z,5.20
2022-12-07T04:34:55.615Z,5.18
2022-12-07T04:35:52.335Z,5.17
2022-12-07T04:36:52.477Z,5.15
2022-12-07T04:37:52.100Z,5.18
2022-12-07T04:38:53.282Z,5.18
2022-12-07T04:39:52.109Z,5.17
2022-12-07T04:40:53.182Z,5.18
2022-12-07T04:41:53.098Z,5.18
2022-12-07T04:43:11.928Z,5.20
2022-12-07T04:43:51.736Z,5.21
2022-12-07T04:44:52.002Z,5.21
2022-12-07T04:45:51.879Z,5.22
2022-12-07T04:46:52.024Z,5.20
2022-12-07T04:47:51.737Z,5.21
2022-12-07T04:48:51.978Z,5.22
2022-12-07T04:49:51.742Z,5.21
2022-12-07T04:50:52.996Z,5.22
2022-12-07T04:51:51.833Z,5.20
2022-12-07T04:53:11.582Z,5.24
2022-12-07T04:53:51.874Z,5.22
2022-12-07T04:54:53.609Z,5.22
2022-12-07T04:55:51.959Z,5.21
2022-12-07T04:56:51.722Z,5.21
2022-12-07T04:57:51.492Z,5.22
2022-12-07T04:58:51.782Z,5.22
2022-12-07T04:59:51.531Z,5.25
2022-12-07T05:00:53.198Z,5.25
2022-12-07T05:01:51.599Z,5.27
2022-12-07T05:03:11.843Z,5.28
2022-12-07T05:03:51.574Z,5.27
2022-12-07T05:04:51.972Z,5.28
2022-12-07T05:05:52.567Z,5.28
2022-12-07T05:06:52.915Z,5.28
2022-12-07T05:07:51.845Z,5.28
2022-12-07T05:08:51.491Z,5.30
2022-12-07T05:09:51.790Z,5.30
2022-12-07T05:10:52.979Z,5.31
2022-12-07T05:11:51.783Z,5.30
2022-12-07T05:13:11.546Z,5.31
2022-12-07T05:13:51.799Z,5.31
2022-12-07T05:14:51.523Z,5.30
2022-12-07T05:15:51.936Z,5.31
2022-12-07T05:16:51.852Z,5.33
2022-12-07T05:17:55.864Z,5.33
2022-12-07T05:18:51.256Z,5.35
2022-12-07T05:19:51.525Z,5.35
2022-12-07T05:20:52.217Z,5.35
2022-12-07T05:21:51.943Z,5.35
2022-12-07T05:23:13.218Z,5.35
2022-12-07T05:23:51.537Z,5.35
2022-12-07T05:24:53.247Z,5.35
2022-12-07T05:25:53.005Z,5.33
2022-12-07T05:26:52.750Z,5.35
2022-12-07T05:27:51.558Z,5.36
2022-12-07T05:28:53.239Z,5.33
2022-12-07T05:29:51.686Z,5.33
2022-12-07T05:30:58.261Z,5.35
2022-12-07T05:31:52.617Z,5.33
2022-12-07T05:33:11.447Z,5.33
2022-12-07T05:33:51.584Z,5.33
2022-12-07T05:34:51.309Z,5.31
2022-12-07T05:35:53.017Z,5.31
2022-12-07T05:36:51.323Z,5.31
2022-12-07T05:37:51.575Z,5.31
2022-12-07T05:38:51.309Z,5.33
2022-12-07T05:39:51.076Z,5.33
2022-12-07T05:40:52.090Z,5.31
2022-12-07T05:41:51.088Z,5.31
2022-12-07T05:43:11.319Z,5.31
2022-12-07T05:43:52.528Z,5.33
2022-12-07T05:44:51.398Z,5.33
2022-12-07T05:45:52.583Z,5.31
2022-12-07T05:46:52.092Z,5.33
2022-12-07T05:47:51.344Z,5.31
2022-12-07T05:48:51.487Z,5.35
2022-12-07T05:49:51.071Z,5.35
2022-12-07T05:50:52.759Z,5.36
2022-12-07T05:51:51.065Z,5.35
2022-12-07T05:53:12.768Z,5.35
2022-12-07T05:53:51.073Z,5.35
2022-12-07T05:54:51.302Z,5.35
2022-12-07T05:55:51.352Z,5.33
2022-12-07T05:56:52.790Z,5.35
2022-12-07T05:57:51.101Z,5.30
2022-12-07T05:58:53.284Z,5.31
2022-12-07T05:59:51.124Z,5.31
2022-12-07T06:00:51.657Z,5.28
2022-12-07T06:01:52.782Z,5.27
2022-12-07T06:03:11.028Z,5.28
2022-12-07T06:03:51.120Z,5.28
2022-12-07T06:04:52.283Z,5.24
2022-12-07T06:05:52.655Z,5.25
2022-12-07T06:06:52.363Z,5.22
2022-12-07T06:07:52.732Z,5.21
2022-12-07T06:08:51.965Z,5.21
2022-12-07T06:09:51.813Z,5.21
2022-12-07T06:10:51.601Z,5.20
2022-12-07T06:11:51.637Z,5.18
2022-12-07T06:13:10.796Z,5.18
2022-12-07T06:13:52.533Z,5.20
2022-12-07T06:14:52.333Z,5.15
2022-12-07T06:15:52.633Z,5.17
2022-12-07T06:16:52.474Z,5.13
2022-12-07T06:17:52.245Z,5.17
2022-12-07T06:18:52.553Z,5.13
2022-12-07T06:19:51.861Z,5.13
2022-12-07T06:20:52.203Z,5.15
2022-12-07T06:21:52.510Z,5.15
2022-12-07T06:23:10.954Z,5.13
2022-12-07T06:23:52.518Z,5.13
2022-12-07T06:24:52.317Z,5.13
2022-12-07T06:25:51.326Z,5.12
2022-12-07T06:26:52.453Z,5.07
2022-12-07T06:27:52.289Z,5.07
2022-12-07T06:28:51.615Z,5.07
2022-12-07T06:29:52.426Z,5.06
2022-12-07T06:30:52.233Z,5.06
2022-12-07T06:31:52.543Z,5.07
2022-12-07T06:33:12.278Z,5.06
2022-12-07T06:33:52.093Z,5.04
2022-12-07T06:34:51.618Z,5.04
2022-12-07T06:35:52.239Z,5.04
2022-12-07T06:36:52.047Z,5.06
2022-12-07T06:37:52.327Z,5.03
2022-12-07T06:38:52.128Z,5.06
2022-12-07T06:39:51.650Z,5.06
2022-12-07T06:40:51.624Z,5.04
2022-12-07T06:41:51.587Z,5.03
2022-12-07T06:43:10.910Z,5.02
2022-12-07T06:43:55.957Z,5.02
2022-12-07T06:44:50.445Z,4.99
2022-12-07T06:45:52.202Z,5.00
2022-12-07T06:46:51.433Z,4.99
2022-12-07T06:47:52.217Z,4.97
2022-12-07T06:48:51.470Z,4.96
2022-12-07T06:49:51.744Z,4.94
2022-12-07T06:50:54.976Z,4.96
2022-12-07T06:51:51.139Z,4.92
2022-12-07T06:53:10.638Z,4.91
2022-12-07T06:53:51.082Z,4.91
2022-12-07T06:54:52.091Z,4.89
2022-12-07T06:55:51.817Z,4.89
2022-12-07T06:56:50.701Z,4.91
2022-12-07T06:57:51.865Z,4.89
2022-12-07T06:58:50.681Z,4.88
2022-12-07T06:59:51.341Z,4.88
2022-12-07T07:00:52.173Z,4.88
2022-12-07T07:01:51.904Z,4.88
2022-12-07T07:03:10.704Z,4.88
2022-12-07T07:03:51.173Z,4.89
2022-12-07T07:04:51.672Z,4.86
2022-12-07T07:05:51.954Z,4.86
2022-12-07T07:06:50.645Z,4.86
2022-12-07T07:08:20.767Z,4.85
2022-12-07T07:08:52.179Z,4.85
2022-12-07T07:09:50.263Z,4.84
2022-12-07T07:10:51.954Z,4.84
2022-12-07T07:11:51.721Z,4.84
2022-12-07T07:13:10.543Z,4.84
2022-12-07T07:13:51.705Z,4.82
2022-12-07T07:14:51.148Z,4.80
2022-12-07T07:15:51.757Z,4.77
2022-12-07T07:16:52.119Z,4.73
2022-12-07T07:17:51.786Z,4.77
2022-12-07T07:18:51.516Z,4.72
2022-12-07T07:19:51.816Z,4.69
2022-12-07T07:20:51.171Z,4.69
2022-12-07T07:21:51.929Z,4.69
2022-12-07T07:23:10.192Z,4.66
2022-12-07T07:23:51.886Z,4.65
2022-12-07T07:24:50.891Z,4.65
2022-12-07T07:25:51.154Z,4.65
2022-12-07T07:26:51.628Z,4.63
2022-12-07T07:27:51.911Z,4.62
2022-12-07T07:28:51.143Z,4.62
2022-12-07T07:29:51.919Z,4.62
2022-12-07T07:30:52.681Z,4.60
2022-12-07T07:31:50.665Z,4.62
2022-12-07T07:33:10.269Z,4.62
2022-12-07T07:33:51.468Z,4.62
2022-12-07T07:34:50.285Z,4.63
2022-12-07T07:35:51.003Z,4.62
2022-12-07T07:36:51.757Z,4.63
2022-12-07T07:37:51.525Z,4.62
2022-12-07T07:38:50.353Z,4.63
2022-12-07T07:39:51.567Z,4.62
2022-12-07T07:40:50.841Z,4.62
2022-12-07T07:41:51.583Z,4.62
2022-12-07T07:43:09.957Z,4.63
2022-12-07T07:43:51.134Z,4.63
2022-12-07T07:44:50.681Z,4.65
2022-12-07T07:45:51.741Z,4.65
2022-12-07T07:46:49.989Z,4.67
2022-12-07T07:47:50.264Z,4.66
2022-12-07T07:48:51.414Z,4.69
2022-12-07T07:49:51.710Z,4.69
2022-12-07T07:50:50.048Z,4.69
2022-12-07T07:51:49.845Z,4.67
2022-12-07T07:53:10.043Z,4.69
2022-12-07T07:53:51.207Z,4.69
2022-12-07T07:54:50.939Z,4.69
2022-12-07T07:55:49.794Z,4.72
2022-12-07T07:56:50.692Z,4.72
2022-12-07T07:57:54.676Z,4.72
2022-12-07T07:58:50.952Z,4.75
2022-12-07T07:59:50.716Z,4.80
2022-12-07T08:00:51.004Z,4.84
2022-12-07T08:01:51.299Z,4.84
2022-12-07T08:03:11.001Z,4.88
2022-12-07T08:03:50.783Z,4.89
2022-12-07T08:04:51.564Z,4.96
2022-12-07T08:05:49.860Z,4.97
2022-12-07T08:06:51.564Z,5.02
2022-12-07T08:07:50.004Z,5.06
2022-12-07T08:08:51.116Z,5.12
2022-12-07T08:09:51.403Z,5.17
2022-12-07T08:10:50.664Z,5.20
2022-12-07T08:11:51.426Z,5.24
2022-12-07T08:13:10.463Z,5.28
2022-12-07T08:13:50.911Z,5.30
2022-12-07T08:14:49.750Z,5.31
2022-12-07T08:15:50.990Z,5.31
2022-12-07T08:16:51.204Z,5.33
2022-12-07T08:17:50.968Z,5.33
2022-12-07T08:18:51.214Z,5.36
2022-12-07T08:19:49.543Z,5.35
2022-12-07T08:20:50.194Z,5.33
2022-12-07T08:21:50.972Z,5.35
2022-12-07T08:23:10.452Z,5.31
2022-12-07T08:23:49.601Z,5.31
2022-12-07T08:24:51.263Z,5.35
2022-12-07T08:25:50.514Z,5.33
2022-12-07T08:26:49.845Z,5.35
2022-12-07T08:27:51.028Z,5.36
2022-12-07T08:28:51.797Z,5.33
2022-12-07T08:29:49.626Z,5.33
2022-12-07T08:30:49.926Z,5.31
2022-12-07T08:31:49.667Z,5.31
2022-12-07T08:33:11.317Z,5.31
2022-12-07T08:33:49.624Z,5.30
2022-12-07T08:34:49.394Z,5.30
2022-12-07T08:35:50.327Z,5.30
2022-12-07T08:36:49.388Z,5.31
2022-12-07T08:37:49.676Z,5.31
2022-12-07T08:39:22.594Z,5.35
2022-12-07T08:39:49.831Z,5.39
2022-12-07T08:40:50.504Z,5.39
2022-12-07T08:41:49.286Z,5.38
2022-12-07T08:43:10.112Z,5.40
2022-12-07T08:43:50.287Z,5.40
2022-12-07T08:44:49.607Z,5.43
2022-12-07T08:45:49.408Z,5.46
2022-12-07T08:46:49.688Z,5.57
2022-12-07T08:47:49.334Z,5.72
2022-12-07T08:48:49.644Z,5.86
2022-12-07T08:49:49.385Z,6.04
2022-12-07T08:50:50.545Z,6.21
2022-12-07T08:51:49.326Z,6.44
2022-12-07T08:53:09.680Z,6.81
2022-12-07T08:53:49.360Z,6.89
2022-12-07T08:54:50.552Z,6.88
2022-12-07T08:55:49.393Z,6.88
2022-12-07T08:56:51.878Z,6.97
2022-12-07T08:57:51.840Z,7.35
2022-12-07T08:58:49.144Z,7.28
2022-12-07T08:59:50.213Z,7.89
2022-12-07T09:00:49.173Z,8.07
2022-12-07T09:01:49.436Z,8.10
2022-12-07T09:03:10.184Z,7.64
2022-12-07T09:03:49.450Z,7.46
2022-12-07T09:04:49.251Z,7.27
2022-12-07T09:05:49.791Z,7.12
2022-12-07T09:06:50.013Z,6.99
2022-12-07T09:07:49.100Z,6.94
2022-12-07T09:08:50.753Z,6.89
2022-12-07T09:09:49.119Z,6.88
2022-12-07T09:10:49.345Z,6.85
2022-12-07T09:11:49.997Z,6.85
2022-12-07T09:13:09.363Z,6.85
2022-12-07T09:13:49.123Z,6.88
2022-12-07T09:14:49.394Z,6.88
2022-12-07T09:15:50.133Z,6.89
2022-12-07T09:16:50.844Z,6.92
2022-12-07T09:17:50.575Z,6.98
2022-12-07T09:18:49.482Z,7.02
2022-12-07T09:19:49.851Z,7.03
2022-12-07T09:20:49.015Z,7.07
2022-12-07T09:21:50.608Z,7.09
2022-12-07T09:23:09.916Z,7.07
2022-12-07T09:23:48.386Z,7.07
2022-12-07T09:24:48.363Z,7.05
2022-12-07T09:25:49.172Z,6.99
2022-12-07T09:26:48.912Z,6.95
2022-12-07T09:27:49.168Z,6.94
2022-12-07T09:28:50.339Z,6.94
2022-12-07T09:29:49.748Z,6.92
2022-12-07T09:31:21.735Z,6.88
2022-12-07T09:31:50.209Z,6.84
2022-12-07T09:33:08.907Z,6.79
2022-12-07T09:33:49.188Z,6.76
2022-12-07T09:34:48.904Z,6.73
2022-12-07T09:35:49.117Z,6.70
2022-12-07T09:36:48.859Z,6.66
2022-12-07T09:37:49.091Z,6.62
2022-12-07T09:38:48.853Z,6.59
2022-12-07T09:39:50.528Z,6.56
2022-12-07T09:40:48.848Z,6.54
2022-12-07T09:41:49.073Z,6.52
2022-12-07T09:43:08.880Z,6.54
2022-12-07T09:43:49.057Z,6.54
2022-12-07T09:44:48.819Z,6.52
2022-12-07T09:45:49.036Z,6.56
2022-12-07T09:46:48.854Z,6.58
2022-12-07T09:47:49.032Z,6.61
2022-12-07T09:48:48.781Z,6.66
2022-12-07T09:49:49.009Z,6.71
2022-12-07T09:50:48.849Z,6.76
2022-12-07T09:51:49.010Z,6.77
2022-12-07T09:53:08.794Z,6.84
2022-12-07T09:53:49.023Z,6.87
2022-12-07T09:54:48.788Z,6.95
2022-12-07T09:55:48.542Z,7.03
2022-12-07T09:56:48.815Z,7.07
2022-12-07T09:57:49.037Z,7.15
2022-12-07T09:58:48.777Z,7.20
2022-12-07T09:59:49.987Z,7.23
2022-12-07T10:00:48.775Z,7.37
2022-12-07T10:01:48.606Z,7.57
2022-12-07T10:03:08.792Z,7.86
2022-12-07T10:03:48.516Z,8.02
2022-12-07T10:04:48.859Z,8.05
2022-12-07T10:05:48.513Z,8.11
2022-12-07T10:06:48.758Z,8.18
2022-12-07T10:07:48.535Z,8.18
2022-12-07T10:08:48.757Z,8.22
2022-12-07T10:09:48.497Z,8.45
2022-12-07T10:10:48.764Z,8.59
2022-12-07T10:11:48.483Z,9.13
2022-12-07T10:13:08.763Z,9.65
2022-12-07T10:13:48.472Z,9.65
2022-12-07T10:15:06.806Z,9.68
2022-12-07T10:15:49.531Z,9.60
2022-12-07T10:16:48.715Z,9.50
2022-12-07T10:17:48.439Z,9.43
2022-12-07T10:18:48.681Z,9.42
2022-12-07T10:19:48.423Z,9.43
2022-12-07T10:20:48.675Z,9.40
2022-12-07T10:21:48.430Z,9.29
2022-12-07T10:23:08.698Z,9.10
2022-12-07T10:23:48.446Z,9.01
2022-12-07T10:24:48.656Z,8.91
2022-12-07T10:25:48.419Z,8.84
2022-12-07T10:26:48.667Z,9.28
2022-12-07T10:27:48.411Z,9.87
2022-12-07T10:28:54.659Z,10.59
2022-12-07T10:31:18.947Z,11.44
2022-12-07T10:31:25.745Z,13.04
2022-12-07T10:32:24.549Z,13.48
2022-12-07T10:33:44.287Z,13.60
2022-12-07T10:34:26.001Z,13.55
2022-12-07T10:37:41.273Z,13.97
2022-12-07T10:37:46.068Z,15.74
2022-12-07T10:39:01.821Z,15.80
2022-12-07T10:39:46.569Z,15.39
2022-12-07T10:40:46.880Z,14.60
2022-12-07T10:41:46.682Z,13.66
2022-12-07T10:43:30.763Z,14.25
2022-12-07T10:44:39.298Z,15.02
2022-12-07T10:47:48.065Z,15.83
2022-12-07T10:47:53.792Z,17.37
2022-12-07T10:48:53.578Z,16.61
2022-12-07T10:49:53.348Z,15.78
2022-12-07T10:51:27.594Z,16.05
2022-12-07T10:52:45.906Z,16.53
2022-12-07T10:52:53.588Z,17.00
2022-12-07T10:56:52.897Z,17.33
2022-12-07T10:56:59.125Z,18.33
2022-12-07T10:57:58.378Z,17.58
2022-12-07T10:59:18.627Z,16.38
2022-12-07T10:59:58.388Z,15.80
2022-12-07T11:00:58.727Z,15.14
2022-12-07T11:01:58.479Z,14.81
2022-12-07T11:02:58.620Z,14.54
2022-12-07T11:03:58.379Z,14.62
2022-12-07T11:04:58.600Z,14.64
2022-12-07T11:05:58.349Z,14.69
2022-12-07T11:06:59.078Z,14.96
2022-12-07T11:08:17.892Z,15.10
2022-12-07T11:09:18.583Z,15.34
2022-12-07T11:10:13.755Z,15.11
2022-12-07T11:10:59.566Z,15.07
2022-12-07T11:11:58.315Z,14.80
2022-12-07T11:12:58.543Z,14.18
2022-12-07T11:13:58.290Z,14.03
2022-12-07T11:14:58.581Z,13.89
2022-12-07T11:15:58.356Z,14.29
2022-12-07T11:16:58.513Z,14.95
2022-12-07T11:17:58.262Z,14.88
2022-12-07T11:19:18.532Z,15.44
2022-12-07T11:19:58.273Z,15.82
2022-12-07T11:20:58.534Z,16.23
2022-12-07T11:21:58.267Z,16.57
2022-12-07T11:22:58.013Z,16.81
2022-12-07T11:23:58.261Z,17.19
2022-12-07T11:24:58.517Z,17.00
2022-12-07T11:25:58.246Z,17.00
2022-12-07T11:26:58.006Z,16.21
2022-12-07T11:27:58.243Z,15.74
2022-12-07T11:29:18.024Z,16.05
2022-12-07T11:29:58.244Z,15.68
2022-12-07T11:30:57.977Z,15.65
2022-12-07T11:31:58.289Z,15.10
2022-12-07T11:32:57.959Z,14.58
2022-12-07T11:33:58.209Z,14.43
2022-12-07T11:34:57.963Z,14.17
2022-12-07T11:35:58.205Z,13.70
2022-12-07T11:36:57.946Z,13.48
2022-12-07T11:37:58.178Z,13.33
2022-12-07T11:39:17.955Z,13.04
2022-12-07T11:39:58.163Z,12.87
2022-12-07T11:40:57.913Z,12.72
2022-12-07T11:41:58.164Z,12.74
2022-12-07T11:42:57.906Z,12.67
2022-12-07T11:43:58.176Z,12.47
2022-12-07T11:44:57.922Z,12.29
2022-12-07T11:45:58.181Z,12.14
2022-12-07T11:46:58.052Z,12.04
2022-12-07T11:47:58.160Z,12.04
2022-12-07T11:49:17.922Z,12.12
2022-12-07T11:49:58.153Z,12.17
2022-12-07T11:50:58.001Z,12.38
2022-12-07T11:51:58.160Z,12.68
2022-12-07T11:52:57.914Z,12.82
2022-12-07T11:53:58.141Z,12.72
2022-12-07T11:54:57.904Z,12.50
2022-12-07T11:55:58.164Z,12.32
2022-12-07T11:56:58.090Z,12.04
2022-12-07T11:57:57.644Z,11.78
2022-12-07T11:59:17.923Z,11.57
2022-12-07T11:59:57.685Z,11.46
2022-12-07T12:00:57.936Z,11.33
2022-12-07T12:01:57.726Z,11.11
2022-12-07T12:02:57.995Z,10.96
2022-12-07T12:03:57.706Z,10.82
2022-12-07T12:04:57.963Z,10.74
2022-12-07T12:05:58.417Z,10.61
2022-12-07T12:09:58.319Z,10.32
2022-12-07T12:10:58.329Z,10.25
2022-12-07T12:14:59.551Z,10.05
2022-12-07T12:15:58.409Z,10.02
2022-12-07T12:16:59.337Z,9.94
2022-12-07T12:17:59.032Z,9.90
2022-12-07T12:19:17.851Z,9.86
2022-12-07T12:19:59.062Z,9.86
2022-12-07T12:20:59.363Z,9.84
2022-12-07T12:21:58.569Z,9.81
2022-12-07T12:22:58.495Z,9.78
2022-12-07T12:23:59.292Z,9.75
2022-12-07T12:24:59.240Z,9.72
2022-12-07T12:25:58.942Z,9.65
2022-12-07T12:26:59.234Z,9.51
2022-12-07T12:27:58.353Z,9.46
2022-12-07T12:29:17.853Z,9.36
2022-12-07T12:29:59.073Z,9.31
2022-12-07T12:30:58.082Z,9.23
2022-12-07T12:31:59.245Z,9.15
2022-12-07T12:32:59.034Z,9.11
2022-12-07T12:33:58.822Z,9.10
2022-12-07T12:34:59.152Z,9.10
2022-12-07T12:35:58.978Z,9.04
2022-12-07T12:36:58.738Z,9.02
2022-12-07T12:37:59.051Z,8.99
2022-12-07T12:39:17.345Z,8.95
2022-12-07T12:39:59.077Z,8.91
2022-12-07T12:40:58.871Z,8.87
2022-12-07T12:41:59.221Z,8.86
2022-12-07T12:42:57.591Z,8.81
2022-12-07T12:43:58.798Z,8.76
2022-12-07T12:44:58.306Z,8.71
2022-12-07T12:45:58.911Z,8.63
2022-12-07T12:46:58.664Z,8.61
2022-12-07T12:47:59.032Z,8.56
2022-12-07T12:49:17.351Z,8.53
2022-12-07T12:49:57.865Z,8.50
2022-12-07T12:50:57.860Z,8.44
2022-12-07T12:51:58.723Z,8.44
2022-12-07T12:52:58.490Z,8.44
2022-12-07T12:53:58.860Z,8.40
2022-12-07T12:54:58.685Z,8.37
2022-12-07T12:55:58.949Z,8.37
2022-12-07T12:56:57.849Z,8.36
2022-12-07T12:57:58.716Z,8.34
2022-12-07T12:59:17.387Z,8.30
2022-12-07T12:59:58.607Z,8.29
2022-12-07T13:00:58.933Z,8.28
2022-12-07T13:01:58.771Z,8.25
2022-12-07T13:02:57.897Z,8.23
2022-12-07T13:03:58.328Z,8.20
2022-12-07T13:04:58.652Z,8.19
2022-12-07T13:05:58.471Z,8.20
2022-12-07T13:06:58.231Z,8.23
2022-12-07T13:07:58.623Z,8.23
2022-12-07T13:09:17.454Z,8.26
2022-12-07T13:09:58.591Z,8.29
2022-12-07T13:10:57.595Z,8.33
2022-12-07T13:11:57.207Z,8.37
2022-12-07T13:12:56.920Z,8.41
2022-12-07T13:13:57.187Z,8.44
2022-12-07T13:14:56.927Z,8.48
2022-12-07T13:16:02.464Z,8.50
2022-12-07T13:16:57.242Z,8.53
2022-12-07T13:17:56.944Z,8.56
2022-12-07T13:19:17.224Z,8.62
2022-12-07T13:19:56.950Z,8.63
2022-12-07T13:20:57.211Z,8.65
2022-12-07T13:21:56.939Z,8.66
2022-12-07T13:22:57.184Z,8.65
2022-12-07T13:23:56.925Z,8.65
2022-12-07T13:24:57.181Z,8.63
2022-12-07T13:25:56.924Z,8.61
2022-12-07T13:26:57.195Z,8.59
2022-12-07T13:27:56.946Z,8.55
2022-12-07T13:29:17.199Z,8.50